Time;durP1;ratioP1;P1;durP2;ratioP2;P2;SDS_P1;SDS_P2;PMS_P1;PMS_P2;Temp;Humidity;BMP_temperature;BMP_pressure;BME280_temperature;BME280_humidity;BME280_pressure;Samples;Min_cycle;Max_cycle;Signal;HPM_P1;HPM_P2
2023/11/20 00:03:43;;;;;;;3.13;1.23;;;13.60;47.50;;;;;;10257545;28;20339;-76
2023/11/20 00:08:46;;;;;;;3.30;1.30;;;13.60;47.70;;;;;;10258668;28;20223;-76
2023/11/20 00:13:50;;;;;;;2.83;1.43;;;13.50;47.60;;;;;;10258691;28;20235;-76
2023/11/20 00:18:54;;;;;;;2.33;1.30;;;13.50;47.60;;;;;;10259587;28;20736;-75
2023/11/20 00:23:58;;;;;;;1.87;1.10;;;13.50;47.70;;;;;;10257817;28;20228;-76
2023/11/20 00:29:01;;;;;;;1.90;1.20;;;13.40;47.60;;;;;;10253958;28;20238;-76
2023/11/20 00:34:06;;;;;;;3.17;1.20;;;13.40;47.60;;;;;;10262487;28;20297;-76
2023/11/20 00:39:11;;;;;;;3.93;1.50;;;13.40;47.70;;;;;;10255838;28;20680;-76
2023/11/20 00:44:15;;;;;;;2.07;1.40;;;13.40;47.60;;;;;;10257441;28;20229;-76
2023/11/20 00:49:19;;;;;;;4.23;1.40;;;13.40;47.70;;;;;;10259387;28;20699;-76
2023/11/20 00:54:22;;;;;;;1.60;1.20;;;13.40;47.70;;;;;;10259408;28;20264;-76
2023/11/20 00:59:26;;;;;;;3.20;1.20;;;13.20;47.40;;;;;;10263707;28;20239;-75
2023/11/20 01:04:33;;;;;;;3.13;1.50;;;13.40;47.50;;;;;;10262888;28;20228;-75
2023/11/20 01:09:36;;;;;;;3.03;1.30;;;13.40;47.60;;;;;;10264924;28;20346;-75
2023/11/20 01:14:39;;;;;;;2.63;1.47;;;13.40;47.50;;;;;;10267237;28;20232;-75
2023/11/20 01:19:44;;;;;;;5.83;1.40;;;13.40;47.30;;;;;;10257834;28;20246;-75
2023/11/20 01:24:47;;;;;;;2.73;1.20;;;13.40;47.40;;;;;;10260734;28;20706;-75
2023/11/20 01:29:51;;;;;;;2.97;1.40;;;13.40;47.40;;;;;;10265018;28;20236;-75
2023/11/20 01:34:55;;;;;;;2.47;1.37;;;13.30;47.30;;;;;;10259875;28;20376;-75
2023/11/20 01:39:59;;;;;;;3.30;1.40;;;13.30;47.20;;;;;;10257151;28;20228;-75
2023/11/20 01:45:02;;;;;;;3.00;1.40;;;13.30;47.20;;;;;;10255388;28;20259;-75
2023/11/20 01:50:10;;;;;;;2.67;1.40;;;13.20;47.40;;;;;;10263200;28;20238;-75
2023/11/20 01:55:15;;;;;;;1.50;1.30;;;13.20;47.50;;;;;;10273387;28;20247;-75
2023/11/20 02:00:19;;;;;;;1.70;1.40;;;13.20;47.60;;;;;;10289912;28;20243;-75
2023/11/20 02:05:24;;;;;;;1.63;1.40;;;13.20;47.80;;;;;;10281618;28;20613;-75
2023/11/20 02:10:27;;;;;;;1.33;1.17;;;13.10;47.70;;;;;;10282419;28;20610;-75
2023/11/20 02:15:31;;;;;;;1.43;1.10;;;13.10;47.60;;;;;;10299351;28;20264;-75
2023/11/20 02:20:35;;;;;;;2.13;1.30;;;13.10;47.80;;;;;;10271256;28;20228;-76
2023/11/20 02:25:40;;;;;;;1.63;1.23;;;13.10;48.10;;;;;;10284186;28;20259;-76
2023/11/20 02:30:45;;;;;;;2.43;1.27;;;13.10;47.90;;;;;;10293151;28;20804;-75
2023/11/20 02:35:49;;;;;;;1.67;0.97;;;13.10;48.00;;;;;;10279471;28;20278;-75
2023/11/20 02:40:53;;;;;;;2.30;1.20;;;13.20;47.90;;;;;;10275768;28;20616;-75
2023/11/20 02:45:57;;;;;;;3.53;1.27;;;13.20;47.80;;;;;;10277487;28;20231;-75
2023/11/20 02:51:02;;;;;;;3.20;1.17;;;13.20;47.80;;;;;;10275498;28;20223;-76
2023/11/20 02:56:06;;;;;;;4.23;1.33;;;13.20;47.40;;;;;;10281011;28;20370;-75
2023/11/20 03:01:11;;;;;;;3.77;1.20;;;13.30;47.40;;;;;;10282899;28;20864;-75
2023/11/20 03:06:14;;;;;;;2.87;1.17;;;13.30;47.30;;;;;;10283418;28;20274;-76
2023/11/20 03:11:18;;;;;;;5.57;1.40;;;13.30;47.30;;;;;;10272334;28;20814;-76
2023/11/20 03:16:23;;;;;;;2.80;1.30;;;13.30;47.20;;;;;;10258752;28;21484;-76
2023/11/20 03:21:27;;;;;;;4.07;1.60;;;13.30;47.20;;;;;;10276631;28;20239;-77
2023/11/20 03:26:31;;;;;;;3.83;1.50;;;13.30;47.20;;;;;;10281632;28;20318;-77
2023/11/20 03:31:37;;;;;;;3.53;1.50;;;13.20;47.90;;;;;;10280254;28;20671;-77
2023/11/20 03:36:40;;;;;;;3.97;1.27;;;13.20;47.40;;;;;;10277807;28;20239;-76
2023/11/20 03:41:44;;;;;;;3.30;1.60;;;13.30;47.40;;;;;;10263464;28;20326;-77
2023/11/20 03:46:48;;;;;;;2.63;1.30;;;13.20;47.30;;;;;;10258092;28;20232;-77
2023/11/20 03:51:51;;;;;;;4.37;1.73;;;13.30;47.40;;;;;;10253411;28;20228;-77
2023/11/20 03:56:54;;;;;;;5.53;1.60;;;13.30;47.30;;;;;;10257389;28;20227;-76
2023/11/20 04:01:59;;;;;;;2.43;1.80;;;13.30;47.20;;;;;;10255461;28;20234;-77
2023/11/20 04:07:03;;;;;;;3.00;1.50;;;13.30;47.20;;;;;;10258173;28;20215;-76
2023/11/20 04:12:07;;;;;;;3.83;1.40;;;13.30;47.00;;;;;;10255016;28;20233;-76
2023/11/20 04:17:11;;;;;;;2.90;1.30;;;13.40;47.30;;;;;;10254415;28;20219;-76
2023/11/20 04:22:15;;;;;;;4.27;1.30;;;13.40;47.40;;;;;;10264820;28;20232;-76
2023/11/20 04:27:18;;;;;;;2.57;1.23;;;13.40;47.10;;;;;;10265727;28;20350;-77
2023/11/20 04:32:22;;;;;;;3.10;1.40;;;13.40;47.10;;;;;;10263175;28;20231;-77
2023/11/20 04:37:25;;;;;;;4.20;1.43;;;13.30;47.20;;;;;;10261461;28;20329;-77
2023/11/20 04:42:29;;;;;;;3.53;1.50;;;13.30;47.20;;;;;;10260950;28;20242;-77
2023/11/20 04:47:33;;;;;;;3.83;1.33;;;13.30;47.30;;;;;;10262728;28;22213;-77
2023/11/20 04:52:37;;;;;;;2.10;1.30;;;13.30;47.10;;;;;;10260534;28;20235;-76
2023/11/20 04:57:40;;;;;;;3.30;1.43;;;13.30;47.10;;;;;;10263717;28;20238;-77
2023/11/20 05:02:44;;;;;;;1.93;1.10;;;13.30;47.10;;;;;;10265034;28;20268;-77
2023/11/20 05:07:49;;;;;;;3.13;1.40;;;13.30;47.00;;;;;;10261761;28;20241;-77
2023/11/20 05:12:53;;;;;;;4.17;1.50;;;13.20;46.80;;;;;;10259401;28;20966;-77
2023/11/20 05:17:58;;;;;;;3.07;1.50;;;13.20;47.00;;;;;;10262571;28;20254;-77
2023/11/20 05:23:01;;;;;;;4.20;1.40;;;13.10;47.00;;;;;;10264175;28;20232;-77
2023/11/20 05:28:05;;;;;;;2.70;1.43;;;13.10;47.10;;;;;;10259613;28;20251;-77
2023/11/20 05:33:10;;;;;;;4.33;1.40;;;13.10;47.00;;;;;;10256986;28;20270;-77
2023/11/20 05:38:13;;;;;;;2.33;1.20;;;13.10;47.30;;;;;;10260455;28;20220;-77
2023/11/20 05:43:17;;;;;;;2.90;1.50;;;13.00;47.20;;;;;;10258893;28;20239;-77
2023/11/20 05:48:21;;;;;;;1.57;1.30;;;13.00;47.30;;;;;;10259666;28;20240;-77
2023/11/20 05:53:25;;;;;;;1.90;1.43;;;13.00;47.40;;;;;;10260385;28;20240;-76
2023/11/20 05:58:28;;;;;;;2.03;1.27;;;13.00;47.30;;;;;;10259994;28;20232;-76
2023/11/20 06:03:32;;;;;;;1.77;1.20;;;13.00;47.30;;;;;;10263485;28;20232;-77
2023/11/20 06:08:36;;;;;;;1.67;1.30;;;13.00;47.30;;;;;;10255194;28;20236;-77
2023/11/20 06:13:39;;;;;;;1.50;1.23;;;13.00;47.30;;;;;;10260742;28;20243;-76
2023/11/20 06:18:44;;;;;;;2.17;1.40;;;12.90;47.20;;;;;;10264044;28;20236;-77
2023/11/20 06:23:47;;;;;;;3.00;1.63;;;13.00;47.30;;;;;;10258765;28;20318;-77
2023/11/20 06:28:50;;;;;;;2.33;1.40;;;12.90;47.10;;;;;;10262382;28;20242;-77
2023/11/20 06:33:55;;;;;;;3.27;1.50;;;12.90;47.20;;;;;;10260690;28;20736;-78
2023/11/20 06:38:59;;;;;;;2.40;1.17;;;12.90;47.10;;;;;;10255198;28;20232;-77
2023/11/20 06:44:02;;;;;;;4.10;1.50;;;13.00;47.40;;;;;;10251564;28;20327;-77
2023/11/20 06:49:07;;;;;;;2.60;1.20;;;13.00;47.30;;;;;;10262358;28;20284;-77
2023/11/20 06:54:10;;;;;;;1.70;1.23;;;13.00;47.00;;;;;;10273978;28;20235;-77
2023/11/20 06:59:14;;;;;;;2.03;1.13;;;13.10;46.80;;;;;;10271575;28;20715;-77
2023/11/20 07:04:19;;;;;;;1.80;1.20;;;13.10;46.80;;;;;;10274565;28;20224;-77
2023/11/20 07:09:28;;;;;;;1.80;1.20;;;13.20;46.70;;;;;;10264205;28;20253;-77
2023/11/20 07:14:32;;;;;;;3.33;1.53;;;13.20;46.60;;;;;;10265550;28;20263;-77
2023/11/20 07:19:36;;;;;;;2.97;1.27;;;13.30;46.50;;;;;;10269655;28;20282;-76
2023/11/20 07:24:40;;;;;;;2.80;1.43;;;13.30;46.20;;;;;;10264277;28;20234;-76
2023/11/20 07:29:43;;;;;;;2.63;1.33;;;13.30;46.40;;;;;;10264964;28;20800;-77
2023/11/20 07:34:48;;;;;;;2.83;1.40;;;13.40;46.30;;;;;;10276311;28;21092;-74
2023/11/20 07:39:51;;;;;;;3.03;1.20;;;13.40;46.10;;;;;;10269274;28;20259;-77
2023/11/20 07:44:54;;;;;;;3.60;1.20;;;13.40;46.40;;;;;;10265004;28;20291;-77
2023/11/20 07:49:58;;;;;;;3.47;1.20;;;13.40;46.20;;;;;;10267722;28;20252;-77
2023/11/20 07:55:02;;;;;;;3.27;1.47;;;13.50;46.10;;;;;;10279544;28;20671;-76
2023/11/20 08:00:11;;;;;;;4.20;1.40;;;13.50;46.10;;;;;;10286451;28;20227;-77
2023/11/20 08:05:18;;;;;;;3.13;1.60;;;13.60;46.00;;;;;;10259640;28;20247;-77
2023/11/20 08:10:22;;;;;;;4.80;1.60;;;13.70;45.60;;;;;;10265731;28;20351;-77
2023/11/20 08:15:26;;;;;;;5.53;1.67;;;13.80;45.80;;;;;;10267280;28;20231;-77
2023/11/20 08:20:31;;;;;;;6.00;1.67;;;13.80;45.40;;;;;;10264958;28;20333;-77
2023/11/20 08:25:35;;;;;;;7.03;1.87;;;13.90;45.10;;;;;;10274286;28;20224;-77
2023/11/20 08:30:38;;;;;;;5.77;1.57;;;14.00;45.20;;;;;;10271368;28;20286;-77
2023/11/20 08:35:42;;;;;;;3.40;1.60;;;14.00;45.10;;;;;;10275355;28;20634;-77
2023/11/20 08:40:46;;;;;;;4.30;1.60;;;14.10;44.80;;;;;;10272682;28;21328;-77
2023/11/20 08:45:49;;;;;;;3.53;1.43;;;14.10;45.40;;;;;;10265295;28;20781;-77
2023/11/20 08:51:10;;;;;;;3.47;1.60;;;14.10;45.30;;;;;;10270744;28;20235;-77
2023/11/20 08:56:13;;;;;;;3.83;1.83;;;14.10;44.30;;;;;;10267990;28;20307;-77
2023/11/20 09:01:16;;;;;;;4.27;1.60;;;14.20;45.40;;;;;;10275453;28;20734;-77
2023/11/20 09:06:21;;;;;;;2.17;1.23;;;14.20;45.60;;;;;;10274097;28;20224;-77
2023/11/20 09:11:24;;;;;;;3.60;1.60;;;14.30;45.00;;;;;;10283382;28;20681;-77
2023/11/20 09:16:27;;;;;;;4.77;2.03;;;14.40;45.10;;;;;;10285309;28;20326;-77
2023/11/20 09:21:32;;;;;;;6.13;1.90;;;14.50;45.00;;;;;;10289292;28;20255;-77
2023/11/20 09:26:37;;;;;;;3.67;1.33;;;14.60;44.40;;;;;;10276933;28;20254;-77
2023/11/20 09:31:41;;;;;;;4.87;1.37;;;14.70;45.10;;;;;;10279935;28;20235;-77
2023/11/20 09:36:45;;;;;;;2.23;1.30;;;14.80;45.00;;;;;;10283104;28;20243;-77
2023/11/20 09:41:49;;;;;;;2.63;1.33;;;14.90;44.30;;;;;;10279986;28;20643;-78
2023/11/20 09:46:53;;;;;;;2.40;1.50;;;15.00;44.30;;;;;;10278038;28;20880;-77
2023/11/20 09:51:59;;;;;;;4.40;1.43;;;15.00;44.30;;;;;;10275318;28;20231;-77
2023/11/20 09:57:03;;;;;;;3.73;1.40;;;15.00;43.60;;;;;;10282195;28;20319;-76
2023/11/20 10:02:06;;;;;;;4.13;2.00;;;14.90;44.10;;;;;;10277584;28;20595;-77
2023/11/20 10:07:16;;;;;;;3.67;1.97;;;14.90;44.20;;;;;;10275967;28;20223;-77
2023/11/20 10:12:23;;;;;;;4.00;1.60;;;14.90;43.30;;;;;;10282264;28;20240;-77
2023/11/20 10:17:28;;;;;;;3.93;1.77;;;15.00;44.10;;;;;;10276491;28;20239;-77
2023/11/20 10:22:37;;;;;;;3.97;1.53;;;15.00;43.40;;;;;;10271658;28;20325;-77
2023/11/20 10:27:41;;;;;;;3.93;1.70;;;15.10;42.90;;;;;;10279988;28;20232;-77
2023/11/20 10:32:45;;;;;;;5.50;1.90;;;15.10;43.30;;;;;;10277194;28;20246;-77
2023/11/20 10:37:57;;;;;;;4.53;1.60;;;15.20;43.70;;;;;;10275606;28;20228;-77
2023/11/20 10:43:01;;;;;;;3.47;1.57;;;15.30;42.80;;;;;;10264551;28;20231;-77
2023/11/20 10:48:07;;;;;;;3.83;1.90;;;15.30;43.00;;;;;;10275304;28;20224;-77
2023/11/20 10:53:15;;;;;;;3.07;1.47;;;15.30;42.90;;;;;;10273535;28;20228;-77
2023/11/20 10:58:18;;;;;;;2.87;1.50;;;15.30;42.40;;;;;;10283013;28;20231;-78
2023/11/20 11:03:21;;;;;;;5.50;1.77;;;15.40;43.00;;;;;;10287840;28;20239;-78
2023/11/20 11:08:27;;;;;;;4.47;1.50;;;15.40;42.60;;;;;;10279964;28;20249;-75
2023/11/20 11:13:33;;;;;;;6.00;1.40;;;15.40;42.00;;;;;;10282711;28;20818;-76
2023/11/20 11:18:37;;;;;;;2.93;1.37;;;15.40;42.20;;;;;;10258748;28;20716;-77
2023/11/20 11:23:49;;;;;;;2.50;1.43;;;15.30;42.30;;;;;;10265117;28;20235;-75
2023/11/20 11:28:56;;;;;;;4.90;1.57;;;15.30;40.60;;;;;;10258130;28;20231;-76
2023/11/20 11:34:28;;;;;;;2.70;1.33;;;15.20;42.00;;;;;;10265086;28;20227;-76
2023/11/20 11:39:42;;;;;;;3.10;1.60;;;15.30;41.00;;;;;;10242274;28;20315;-76
2023/11/20 11:44:55;;;;;;;5.17;1.70;;;15.40;41.50;;;;;;10249413;28;20232;-76
2023/11/20 11:49:59;;;;;;;4.07;1.60;;;15.50;41.00;;;;;;10241796;28;21162;-76
2023/11/20 11:55:24;;;;;;;3.87;1.63;;;15.60;42.10;;;;;;10249270;28;20227;-77
2023/11/20 12:00:30;;;;;;;2.63;1.37;;;15.60;37.40;;;;;;10254069;28;20239;-78
2023/11/20 12:06:13;;;;;;;4.30;1.60;;;15.50;41.10;;;;;;10257432;28;20224;-76
2023/11/20 12:11:52;;;;;;;3.20;1.30;;;15.50;39.30;;;;;;10263777;28;20317;-77
2023/11/20 12:17:02;;;;;;;4.90;1.30;;;15.50;40.20;;;;;;10263908;28;20751;-76
2023/11/20 12:22:08;;;;;;;3.07;1.20;;;15.50;39.40;;;;;;10269657;28;20590;-76
2023/11/20 12:27:13;;;;;;;4.67;1.43;;;15.50;40.40;;;;;;10268503;28;21477;-78
2023/11/20 12:32:16;;;;;;;5.30;1.70;;;15.50;40.20;;;;;;10267046;28;20224;-79
2023/11/20 12:37:20;;;;;;;3.57;1.50;;;15.50;40.40;;;;;;10270115;28;20302;-80
2023/11/20 12:42:26;;;;;;;3.27;1.40;;;15.40;40.10;;;;;;10274288;28;20246;-80
2023/11/20 12:47:29;;;;;;;2.23;1.40;;;15.40;39.50;;;;;;10288522;28;20255;-80
2023/11/20 12:52:32;;;;;;;2.97;1.50;;;15.40;40.20;;;;;;10288301;28;20256;-80
2023/11/20 12:57:37;;;;;;;2.80;1.20;;;15.40;40.50;;;;;;10289965;28;20236;-80
2023/11/20 13:02:41;;;;;;;2.60;1.30;;;15.40;39.40;;;;;;10285327;28;20330;-78
2023/11/20 13:07:45;;;;;;;3.63;1.20;;;15.40;40.00;;;;;;10271809;28;20310;-76
2023/11/20 13:12:50;;;;;;;2.57;1.30;;;15.50;39.90;;;;;;10270683;28;20326;-77
2023/11/20 13:17:54;;;;;;;3.37;1.40;;;15.50;39.20;;;;;;10272376;28;20286;-78
2023/11/20 13:22:58;;;;;;;2.53;1.13;;;15.50;39.60;;;;;;10277577;28;20260;-77
2023/11/20 13:28:04;;;;;;;5.17;1.43;;;15.50;39.70;;;;;;10270043;28;20232;-75
2023/11/20 13:33:09;;;;;;;3.97;1.40;;;15.40;38.80;;;;;;10269602;28;21084;-77
2023/11/20 13:38:12;;;;;;;4.33;1.50;;;15.40;39.50;;;;;;10272971;28;20227;-77
2023/11/20 13:43:17;;;;;;;2.87;1.20;;;15.50;39.50;;;;;;10272979;28;20576;-78
2023/11/20 13:48:20;;;;;;;2.73;1.30;;;15.40;38.70;;;;;;10271894;28;20234;-77
2023/11/20 13:53:24;;;;;;;4.13;1.27;;;15.50;39.40;;;;;;10265716;28;20244;-77
2023/11/20 13:58:29;;;;;;;3.17;1.20;;;15.50;39.00;;;;;;10267893;28;20230;-77
2023/11/20 14:03:32;;;;;;;1.70;1.10;;;15.50;38.70;;;;;;10272731;28;20323;-78
2023/11/20 14:08:37;;;;;;;3.50;1.40;;;15.50;39.10;;;;;;10265425;28;20238;-76
2023/11/20 14:13:42;;;;;;;3.87;1.53;;;15.50;38.70;;;;;;10260815;28;20243;-76
2023/11/20 14:18:45;;;;;;;3.50;1.20;;;15.50;38.10;;;;;;10265030;28;20235;-75
2023/11/20 14:23:48;;;;;;;3.47;1.13;;;15.50;38.70;;;;;;10265792;28;20311;-75
2023/11/20 14:28:56;;;;;;;3.27;1.90;;;15.40;38.80;;;;;;10263248;28;20623;-76
2023/11/20 14:33:59;;;;;;;2.93;2.00;;;15.30;38.80;;;;;;10265424;28;20243;-76
2023/11/20 14:39:03;;;;;;;3.17;1.70;;;15.30;39.30;;;;;;10255517;28;20267;-76
2023/11/20 14:44:08;;;;;;;3.47;1.93;;;15.20;39.30;;;;;;10266174;28;20766;-75
2023/11/20 14:49:12;;;;;;;6.43;2.87;;;15.20;39.40;;;;;;10262650;28;20572;-75
2023/11/20 14:54:16;;;;;;;6.70;2.57;;;15.10;39.70;;;;;;10264248;28;20660;-74
2023/11/20 14:59:21;;;;;;;4.73;1.50;;;15.10;40.00;;;;;;10262739;28;20592;-75
2023/11/20 15:04:24;;;;;;;4.30;2.10;;;15.20;39.30;;;;;;10267512;28;20346;-75
2023/11/20 15:09:27;;;;;;;3.50;1.80;;;15.10;39.40;;;;;;10263818;28;20235;-75
2023/11/20 15:14:32;;;;;;;2.97;1.50;;;15.10;39.40;;;;;;10261840;28;20238;-75
2023/11/20 15:19:35;;;;;;;2.03;1.10;;;15.00;39.10;;;;;;10265223;28;20241;-75
2023/11/20 15:24:38;;;;;;;2.87;1.50;;;14.90;39.40;;;;;;10264572;28;20809;-76
2023/11/20 15:29:44;;;;;;;2.73;1.30;;;14.80;39.40;;;;;;10264872;28;20236;-76
2023/11/20 15:34:48;;;;;;;2.60;1.60;;;14.80;39.40;;;;;;10262024;28;20242;-75
2023/11/20 15:39:51;;;;;;;3.27;1.60;;;14.80;39.60;;;;;;10262327;28;20755;-75
2023/11/20 15:44:55;;;;;;;2.37;1.67;;;14.80;39.40;;;;;;10265509;28;20264;-75
2023/11/20 15:49:59;;;;;;;3.70;3.10;;;14.80;39.20;;;;;;10263066;28;20228;-76
2023/11/20 15:55:02;;;;;;;4.07;2.90;;;14.70;39.30;;;;;;10257315;28;20231;-76
2023/11/20 16:00:11;;;;;;;5.37;2.70;;;14.60;39.40;;;;;;10255401;28;20232;-76
2023/11/20 16:05:15;;;;;;;4.03;2.33;;;14.50;39.00;;;;;;10264324;28;20223;-75
2023/11/20 16:10:20;;;;;;;3.67;2.17;;;14.40;39.40;;;;;;10261366;28;20228;-75
2023/11/20 16:15:24;;;;;;;4.23;2.47;;;14.40;39.60;;;;;;10262661;28;20247;-76
2023/11/20 16:20:28;;;;;;;2.67;1.80;;;14.30;39.40;;;;;;10266264;28;20773;-76
2023/11/20 16:25:31;;;;;;;2.83;2.10;;;14.20;39.60;;;;;;10266939;28;20220;-76
2023/11/20 16:30:52;;;;;;;5.10;2.33;;;14.10;39.60;;;;;;10270925;28;20231;-78
2023/11/20 16:35:55;;;;;;;5.10;2.90;;;14.10;39.70;;;;;;10281308;28;20306;-77
2023/11/20 16:40:58;;;;;;;6.50;3.77;;;14.10;40.00;;;;;;10287112;28;20256;-76
2023/11/20 16:46:04;;;;;;;11.13;8.40;;;14.10;39.90;;;;;;10269610;28;20216;-77
2023/11/20 16:51:08;;;;;;;9.90;6.80;;;14.00;39.30;;;;;;10273988;28;20235;-78
2023/11/20 16:56:11;;;;;;;6.97;5.77;;;14.00;40.10;;;;;;10280834;28;20659;-80
2023/11/20 17:01:16;;;;;;;5.73;4.37;;;14.00;40.10;;;;;;10282201;28;20232;-78
2023/11/20 17:06:21;;;;;;;4.13;3.73;;;14.00;40.00;;;;;;10289202;28;20215;-79
2023/11/20 17:11:24;;;;;;;4.20;3.30;;;14.00;39.90;;;;;;10281523;28;20239;-79
2023/11/20 17:16:29;;;;;;;5.20;4.07;;;14.10;39.90;;;;;;10285187;28;20326;-77
2023/11/20 17:21:33;;;;;;;7.33;6.13;;;14.10;39.70;;;;;;10273981;28;20580;-78
2023/11/20 17:26:36;;;;;;;10.17;7.57;;;14.10;39.70;;;;;;10267913;28;20220;-74
2023/11/20 17:31:41;;;;;;;16.47;12.30;;;14.00;39.90;;;;;;10270253;28;20231;-75
2023/11/20 17:36:45;;;;;;;20.93;15.67;;;14.00;39.90;;;;;;10268001;28;20223;-75
2023/11/20 17:41:48;;;;;;;14.50;11.90;;;14.00;40.10;;;;;;10268326;28;20315;-75
2023/11/20 17:46:52;;;;;;;11.20;9.50;;;14.00;40.20;;;;;;10269606;28;20219;-75
2023/11/20 17:51:56;;;;;;;11.60;8.43;;;14.10;40.30;;;;;;10273667;28;20601;-76
2023/11/20 17:56:59;;;;;;;9.17;7.43;;;14.10;40.10;;;;;;10271696;28;20224;-78
2023/11/20 18:02:04;;;;;;;8.13;7.33;;;14.10;39.90;;;;;;10274550;28;20743;-77
2023/11/20 18:07:08;;;;;;;7.90;5.53;;;14.10;39.80;;;;;;10268804;28;20311;-77
2023/11/20 18:12:11;;;;;;;7.70;5.17;;;14.00;39.50;;;;;;10271593;28;20247;-78
2023/11/20 18:17:16;;;;;;;8.93;5.77;;;13.80;39.50;;;;;;10279560;28;20294;-77
2023/11/20 18:22:20;;;;;;;8.30;6.67;;;13.70;39.50;;;;;;10269193;28;20231;-77
2023/11/20 18:27:23;;;;;;;7.00;6.07;;;13.60;39.90;;;;;;10268827;28;20718;-77
2023/11/20 18:32:28;;;;;;;7.57;5.50;;;13.60;39.90;;;;;;10272901;28;20236;-77
2023/11/20 18:37:31;;;;;;;4.53;4.10;;;13.50;39.70;;;;;;10265629;28;20236;-76
2023/11/20 18:42:34;;;;;;;5.07;3.20;;;13.50;39.40;;;;;;10266123;28;20801;-75
2023/11/20 18:47:39;;;;;;;4.80;3.20;;;13.50;39.40;;;;;;10263927;28;20235;-75
2023/11/20 18:52:42;;;;;;;4.63;2.43;;;13.40;38.90;;;;;;10266019;28;20326;-76
2023/11/20 18:57:49;;;;;;;6.13;4.13;;;13.30;38.90;;;;;;10267858;28;21144;-75
2023/11/20 19:02:55;;;;;;;6.10;2.87;;;13.20;38.70;;;;;;10267248;28;20228;-75
2023/11/20 19:07:59;;;;;;;6.63;2.70;;;13.00;38.30;;;;;;10265623;28;20229;-76
2023/11/20 19:13:02;;;;;;;7.73;3.70;;;12.80;38.90;;;;;;10264623;28;20333;-75
2023/11/20 19:18:06;;;;;;;8.47;4.80;;;12.60;39.10;;;;;;10264722;28;20231;-75
2023/11/20 19:23:10;;;;;;;8.97;4.67;;;12.40;39.00;;;;;;10265202;28;20768;-75
2023/11/20 19:28:13;;;;;;;7.80;6.27;;;12.30;39.20;;;;;;10261045;28;20231;-75
2023/11/20 19:33:18;;;;;;;9.87;6.80;;;12.10;39.30;;;;;;10268051;28;20232;-76
2023/11/20 19:38:21;;;;;;;11.57;7.00;;;12.00;39.30;;;;;;10267132;28;20274;-76
2023/11/20 19:43:26;;;;;;;8.07;6.33;;;12.00;39.50;;;;;;10269848;28;20235;-78
2023/11/20 19:48:31;;;;;;;7.93;5.60;;;12.00;39.80;;;;;;10272401;28;20324;-77
2023/11/20 19:53:34;;;;;;;12.37;9.87;;;12.00;39.50;;;;;;10273955;28;20309;-77
2023/11/20 19:58:38;;;;;;;12.07;8.60;;;12.00;39.60;;;;;;10269963;28;20331;-76
2023/11/20 20:03:45;;;;;;;9.23;7.30;;;12.00;39.70;;;;;;10271000;28;20770;-77
2023/11/20 20:08:50;;;;;;;8.67;6.47;;;11.90;39.30;;;;;;10268336;28;20290;-76
2023/11/20 20:13:54;;;;;;;7.27;5.27;;;11.80;39.30;;;;;;10264404;28;20713;-76
2023/11/20 20:18:59;;;;;;;7.20;5.67;;;11.60;39.30;;;;;;10270687;28;20231;-76
2023/11/20 20:24:02;;;;;;;9.30;5.30;;;11.40;39.40;;;;;;10261420;28;20611;-76
2023/11/20 20:29:06;;;;;;;9.07;5.47;;;11.20;39.60;;;;;;10258312;28;20590;-75
2023/11/20 20:34:11;;;;;;;7.10;4.73;;;11.20;39.90;;;;;;10269268;28;20219;-76
2023/11/20 20:39:14;;;;;;;8.13;5.43;;;11.10;39.90;;;;;;10263175;28;20222;-76
2023/11/20 20:44:19;;;;;;;4.57;4.07;;;11.10;40.20;;;;;;10268482;28;20223;-77
2023/11/20 20:49:24;;;;;;;8.50;4.67;;;11.20;40.30;;;;;;10271196;28;20341;-76
2023/11/20 20:54:27;;;;;;;6.70;5.33;;;11.30;40.50;;;;;;10265136;28;20240;-77
2023/11/20 20:59:31;;;;;;;6.43;5.40;;;11.40;40.30;;;;;;10265536;28;20598;-77
2023/11/20 21:04:36;;;;;;;8.20;4.80;;;11.50;40.10;;;;;;10272840;28;21015;-78
2023/11/20 21:09:41;;;;;;;7.23;4.60;;;11.50;39.50;;;;;;10283856;28;20287;-78
2023/11/20 21:14:45;;;;;;;7.43;4.40;;;11.50;39.60;;;;;;10273693;28;20323;-78
2023/11/20 21:19:50;;;;;;;6.97;4.50;;;11.40;39.90;;;;;;10278607;28;20262;-78
2023/11/20 21:24:53;;;;;;;8.37;4.50;;;11.40;39.70;;;;;;10278277;28;20239;-78
2023/11/20 21:29:56;;;;;;;7.50;4.47;;;11.40;39.90;;;;;;10287932;28;20259;-78
2023/11/20 21:35:01;;;;;;;7.67;5.80;;;11.40;40.30;;;;;;10274390;28;20234;-78
2023/11/20 21:40:09;;;;;;;6.50;4.87;;;11.30;40.80;;;;;;10282187;28;20235;-77
2023/11/20 21:45:13;;;;;;;8.10;4.50;;;11.40;41.10;;;;;;10286322;28;20645;-77
2023/11/20 21:50:18;;;;;;;7.33;5.30;;;11.50;41.30;;;;;;10286256;28;20233;-76
2023/11/20 21:55:24;;;;;;;9.03;5.13;;;11.60;41.30;;;;;;10287068;28;20277;-76
2023/11/20 22:00:27;;;;;;;7.27;5.00;;;11.70;41.20;;;;;;10288628;28;20645;-76
2023/11/20 22:05:31;;;;;;;6.23;4.87;;;11.70;40.80;;;;;;10288165;28;20232;-75
2023/11/20 22:10:38;;;;;;;6.07;4.20;;;11.70;40.90;;;;;;10288615;28;20610;-75
2023/11/20 22:15:41;;;;;;;6.77;3.10;;;11.70;40.70;;;;;;10288326;28;20235;-76
2023/11/20 22:20:46;;;;;;;4.87;2.80;;;11.70;40.90;;;;;;10281182;28;20307;-78
2023/11/20 22:25:51;;;;;;;7.43;3.40;;;11.50;41.30;;;;;;10273714;28;20236;-77
2023/11/20 22:30:55;;;;;;;6.10;3.73;;;11.40;41.20;;;;;;10271298;28;20267;-78
2023/11/20 22:35:59;;;;;;;6.57;4.03;;;11.30;41.10;;;;;;10276004;28;20226;-77
2023/11/20 22:41:06;;;;;;;6.57;4.33;;;11.20;41.40;;;;;;10269892;28;20413;-77
2023/11/20 22:46:10;;;;;;;7.30;3.67;;;11.10;41.20;;;;;;10268774;28;20230;-75
2023/11/20 22:51:15;;;;;;;6.73;3.40;;;11.00;41.30;;;;;;10285033;28;20223;-76
2023/11/20 22:56:18;;;;;;;5.37;3.47;;;11.00;42.00;;;;;;10275928;28;20311;-76
2023/11/20 23:01:21;;;;;;;5.30;3.30;;;11.00;42.00;;;;;;10279948;28;20240;-75
2023/11/20 23:06:26;;;;;;;6.57;3.60;;;11.10;42.00;;;;;;10278538;28;20251;-77
2023/11/20 23:11:30;;;;;;;6.40;3.10;;;11.20;42.20;;;;;;10284169;28;20322;-76
2023/11/20 23:16:33;;;;;;;7.27;3.40;;;11.30;41.90;;;;;;10272521;28;20238;-77
2023/11/20 23:21:37;;;;;;;5.33;2.90;;;11.30;41.60;;;;;;10278877;28;20805;-75
2023/11/20 23:26:41;;;;;;;5.70;3.03;;;11.30;41.70;;;;;;10275642;28;20228;-78
2023/11/20 23:31:44;;;;;;;7.90;3.60;;;11.30;41.50;;;;;;10279086;28;20619;-76
2023/11/20 23:36:49;;;;;;;4.93;3.00;;;11.20;41.60;;;;;;10273054;28;20235;-76
2023/11/20 23:41:53;;;;;;;5.23;3.17;;;11.10;42.00;;;;;;10277668;28;20235;-76
2023/11/20 23:46:56;;;;;;;6.83;3.70;;;11.00;41.90;;;;;;10280615;28;20232;-76
2023/11/20 23:52:01;;;;;;;5.53;3.47;;;10.90;42.00;;;;;;10279150;28;20240;-76
2023/11/20 23:57:05;;;;;;;6.63;3.33;;;10.80;42.50;;;;;;10275959;28;20236;-76
